sensor_id;sensor_type;location;lat;lon;timestamp;pressure;altitude;pressure_sealevel;temperature;humidity
56568;BME280;42456;49.956;20.004;2022-12-18T00:02:11;99723.88;;;-4.14;81.26
56568;BME280;42456;49.956;20.004;2022-12-18T00:04:38;99727.52;;;-4.15;81.30
56568;BME280;42456;49.956;20.004;2022-12-18T00:07:04;99738.03;;;-4.15;81.29
56568;BME280;42456;49.956;20.004;2022-12-18T00:09:30;99735.70;;;-4.14;81.33
56568;BME280;42456;49.956;20.004;2022-12-18T00:11:57;99738.84;;;-4.15;81.33
56568;BME280;42456;49.956;20.004;2022-12-18T00:14:23;99737.53;;;-4.15;81.26
56568;BME280;42456;49.956;20.004;2022-12-18T00:16:49;99747.02;;;-4.14;81.29
56568;BME280;42456;49.956;20.004;2022-12-18T00:19:16;99753.59;;;-4.14;81.25
56568;BME280;42456;49.956;20.004;2022-12-18T00:21:43;99754.09;;;-4.14;81.21
56568;BME280;42456;49.956;20.004;2022-12-18T00:24:10;99763.80;;;-4.15;81.22
56568;BME280;42456;49.956;20.004;2022-12-18T00:26:38;99772.47;;;-4.14;81.26
56568;BME280;42456;49.956;20.004;2022-12-18T00:29:10;99775.09;;;-4.14;81.23
56568;BME280;42456;49.956;20.004;2022-12-18T00:31:40;99774.80;;;-4.15;81.10
56568;BME280;42456;49.956;20.004;2022-12-18T00:34:08;99773.69;;;-4.17;81.10
56568;BME280;42456;49.956;20.004;2022-12-18T00:36:39;99780.55;;;-4.16;81.16
56568;BME280;42456;49.956;20.004;2022-12-18T00:39:05;99783.70;;;-4.16;81.20
56568;BME280;42456;49.956;20.004;2022-12-18T00:41:32;99776.81;;;-4.17;81.25
56568;BME280;42456;49.956;20.004;2022-12-18T00:44:14;99779.77;;;-4.16;81.23
56568;BME280;42456;49.956;20.004;2022-12-18T00:46:43;99782.39;;;-4.16;81.18
56568;BME280;42456;49.956;20.004;2022-12-18T00:49:13;99791.05;;;-4.16;81.15
56568;BME280;42456;49.956;20.004;2022-12-18T00:51:40;99801.56;;;-4.16;81.07
56568;BME280;42456;49.956;20.004;2022-12-18T00:54:07;99801.77;;;-4.17;81.10
56568;BME280;42456;49.956;20.004;2022-12-18T00:56:36;99809.15;;;-4.17;81.13
56568;BME280;42456;49.956;20.004;2022-12-18T00:59:04;99809.64;;;-4.17;81.08
56568;BME280;42456;49.956;20.004;2022-12-18T01:01:30;99813.09;;;-4.17;81.16
56568;BME280;42456;49.956;20.004;2022-12-18T01:04:00;99807.84;;;-4.17;81.15
56568;BME280;42456;49.956;20.004;2022-12-18T01:06:27;99807.54;;;-4.18;81.12
56568;BME280;42456;49.956;20.004;2022-12-18T01:08:54;99811.97;;;-4.18;81.12
56568;BME280;42456;49.956;20.004;2022-12-18T01:11:21;99808.52;;;-4.19;81.12
56568;BME280;42456;49.956;20.004;2022-12-18T01:13:48;99820.67;;;-4.18;81.14
56568;BME280;42456;49.956;20.004;2022-12-18T01:16:16;99821.46;;;-4.17;81.10
56568;BME280;42456;49.956;20.004;2022-12-18T01:18:43;99819.16;;;-4.16;81.11
56568;BME280;42456;49.956;20.004;2022-12-18T01:21:15;99820.97;;;-4.17;81.08
56568;BME280;42456;49.956;20.004;2022-12-18T01:23:40;99828.84;;;-4.17;81.04
56568;BME280;42456;49.956;20.004;2022-12-18T01:26:08;99832.79;;;-4.17;81.03
56568;BME280;42456;49.956;20.004;2022-12-18T01:28:37;99831.77;;;-4.16;81.00
56568;BME280;42456;49.956;20.004;2022-12-18T01:31:22;99830.46;;;-4.16;81.08
56568;BME280;42456;49.956;20.004;2022-12-18T01:33:53;99838.34;;;-4.16;81.01
56568;BME280;42456;49.956;20.004;2022-12-18T01:36:28;99837.84;;;-4.15;81.04
56568;BME280;42456;49.956;20.004;2022-12-18T01:38:56;99837.03;;;-4.16;81.01
56568;BME280;42456;49.956;20.004;2022-12-18T01:41:27;99845.73;;;-4.15;81.01
56568;BME280;42456;49.956;20.004;2022-12-18T01:43:59;99846.42;;;-4.17;80.88
56568;BME280;42456;49.956;20.004;2022-12-18T01:46:26;99851.67;;;-4.17;80.99
56568;BME280;42456;49.956;20.004;2022-12-18T01:48:57;99850.06;;;-4.18;80.94
56568;BME280;42456;49.956;20.004;2022-12-18T01:51:27;99850.55;;;-4.19;80.88
56568;BME280;42456;49.956;20.004;2022-12-18T01:53:55;99855.31;;;-4.18;81.02
56568;BME280;42456;49.956;20.004;2022-12-18T01:56:22;99850.36;;;-4.17;81.04
56568;BME280;42456;49.956;20.004;2022-12-18T01:58:52;99856.92;;;-4.17;80.98
56568;BME280;42456;49.956;20.004;2022-12-18T02:01:23;99850.88;;;-4.18;80.93
56568;BME280;42456;49.956;20.004;2022-12-18T02:03:51;99854.00;;;-4.18;80.95
56568;BME280;42456;49.956;20.004;2022-12-18T02:06:27;99854.82;;;-4.18;80.97
56568;BME280;42456;49.956;20.004;2022-12-18T02:14:43;99868.45;;;-4.18;80.94
56568;BME280;42456;49.956;20.004;2022-12-18T02:17:19;99875.84;;;-4.18;81.07
56568;BME280;42456;49.956;20.004;2022-12-18T02:19:58;99881.09;;;-4.18;81.00
56568;BME280;42456;49.956;20.004;2022-12-18T02:28:38;99903.48;;;-4.22;80.97
56568;BME280;42456;49.956;20.004;2022-12-18T02:31:08;99893.98;;;-4.23;81.08
56568;BME280;42456;49.956;20.004;2022-12-18T02:33:37;99898.75;;;-4.22;81.09
56568;BME280;42456;49.956;20.004;2022-12-18T02:36:05;99909.55;;;-4.21;81.02
56568;BME280;42456;49.956;20.004;2022-12-18T02:38:34;99907.41;;;-4.22;81.00
56568;BME280;42456;49.956;20.004;2022-12-18T02:41:02;99912.17;;;-4.21;81.04
56568;BME280;42456;49.956;20.004;2022-12-18T02:43:30;99911.69;;;-4.21;81.10
56568;BME280;42456;49.956;20.004;2022-12-18T02:45:59;99898.03;;;-4.20;81.09
56568;BME280;42456;49.956;20.004;2022-12-18T02:48:32;99909.05;;;-4.21;81.00
56568;BME280;42456;49.956;20.004;2022-12-18T02:51:07;99912.17;;;-4.21;81.01
56568;BME280;42456;49.956;20.004;2022-12-18T02:53:49;99914.70;;;-4.24;80.96
56568;BME280;42456;49.956;20.004;2022-12-18T02:56:27;99929.14;;;-4.24;81.02
56568;BME280;42456;49.956;20.004;2022-12-18T03:01:39;99925.89;;;-4.26;81.03
56568;BME280;42456;49.956;20.004;2022-12-18T03:07:13;99929.01;;;-4.26;81.09
56568;BME280;42456;49.956;20.004;2022-12-18T03:09:43;99925.59;;;-4.27;81.08
56568;BME280;42456;49.956;20.004;2022-12-18T03:17:37;99942.66;;;-4.27;81.21
56568;BME280;42456;49.956;20.004;2022-12-18T03:20:10;99939.52;;;-4.26;81.21
56568;BME280;42456;49.956;20.004;2022-12-18T03:22:38;99942.14;;;-4.26;81.18
56568;BME280;42456;49.956;20.004;2022-12-18T03:25:07;99943.98;;;-4.27;81.19
56568;BME280;42456;49.956;20.004;2022-12-18T03:27:37;99949.53;;;-4.26;81.18
56568;BME280;42456;49.956;20.004;2022-12-18T03:30:09;99948.90;;;-4.28;81.15
56568;BME280;42456;49.956;20.004;2022-12-18T03:32:58;99952.34;;;-4.27;81.23
56568;BME280;42456;49.956;20.004;2022-12-18T03:35:27;99955.27;;;-4.26;81.32
56568;BME280;42456;49.956;20.004;2022-12-18T03:37:56;99960.03;;;-4.26;81.21
56568;BME280;42456;49.956;20.004;2022-12-18T03:40:26;99960.22;;;-4.27;81.22
56568;BME280;42456;49.956;20.004;2022-12-18T03:43:09;99969.42;;;-4.27;81.17
56568;BME280;42456;49.956;20.004;2022-12-18T03:45:42;99971.22;;;-4.28;81.11
56568;BME280;42456;49.956;20.004;2022-12-18T03:48:22;99970.10;;;-4.29;81.14
56568;BME280;42456;49.956;20.004;2022-12-18T03:51:06;99971.94;;;-4.30;81.09
56568;BME280;42456;49.956;20.004;2022-12-18T03:53:57;99982.11;;;-4.31;81.15
56568;BME280;42456;49.956;20.004;2022-12-18T03:56:27;99983.95;;;-4.31;81.12
56568;BME280;42456;49.956;20.004;2022-12-18T03:58:56;99985.27;;;-4.31;81.25
56568;BME280;42456;49.956;20.004;2022-12-18T04:01:33;99982.64;;;-4.31;81.21
56568;BME280;42456;49.956;20.004;2022-12-18T04:04:04;99980.01;;;-4.31;81.15
56568;BME280;42456;49.956;20.004;2022-12-18T04:06:32;99983.61;;;-4.32;81.13
56568;BME280;42456;49.956;20.004;2022-12-18T04:09:00;99992.81;;;-4.32;81.24
56568;BME280;42456;49.956;20.004;2022-12-18T04:11:26;99995.77;;;-4.31;81.18
56568;BME280;42456;49.956;20.004;2022-12-18T04:13:55;99994.13;;;-4.32;81.14
56568;BME280;42456;49.956;20.004;2022-12-18T04:16:24;99999.38;;;-4.32;81.17
56568;BME280;42456;49.956;20.004;2022-12-18T04:18:51;99997.27;;;-4.33;81.14
56568;BME280;42456;49.956;20.004;2022-12-18T04:21:17;100000.09;;;-4.34;81.10
56568;BME280;42456;49.956;20.004;2022-12-18T04:23:44;100000.88;;;-4.34;81.22
56568;BME280;42456;49.956;20.004;2022-12-18T04:26:11;100000.58;;;-4.35;81.21
56568;BME280;42456;49.956;20.004;2022-12-18T04:28:37;100016.63;;;-4.34;81.17
56568;BME280;42456;49.956;20.004;2022-12-18T04:31:03;100011.08;;;-4.35;81.18
56568;BME280;42456;49.956;20.004;2022-12-18T04:33:30;100015.02;;;-4.35;81.17
56568;BME280;42456;49.956;20.004;2022-12-18T04:35:57;100015.70;;;-4.37;81.11
56568;BME280;42456;49.956;20.004;2022-12-18T04:38:23;100020.66;;;-4.38;81.09
56568;BME280;42456;49.956;20.004;2022-12-18T04:40:49;100022.79;;;-4.37;81.14
56568;BME280;42456;49.956;20.004;2022-12-18T04:43:16;100026.73;;;-4.37;81.26
56568;BME280;42456;49.956;20.004;2022-12-18T04:45:42;100019.64;;;-4.37;81.23
56568;BME280;42456;49.956;20.004;2022-12-18T04:48:09;100029.16;;;-4.36;81.22
56568;BME280;42456;49.956;20.004;2022-12-18T04:50:35;100031.27;;;-4.35;81.22
56568;BME280;42456;49.956;20.004;2022-12-18T04:53:01;100034.42;;;-4.36;81.14
56568;BME280;42456;49.956;20.004;2022-12-18T04:55:27;100038.16;;;-4.34;81.17
56568;BME280;42456;49.956;20.004;2022-12-18T04:57:54;100034.42;;;-4.36;81.13
56568;BME280;42456;49.956;20.004;2022-12-18T05:00:20;100046.53;;;-4.35;81.08
56568;BME280;42456;49.956;20.004;2022-12-18T05:02:47;100051.98;;;-4.36;81.07
56568;BME280;42456;49.956;20.004;2022-12-18T05:05:14;100053.59;;;-4.35;81.07
56568;BME280;42456;49.956;20.004;2022-12-18T05:07:40;100058.84;;;-4.35;81.06
56568;BME280;42456;49.956;20.004;2022-12-18T05:10:08;100052.80;;;-4.36;81.13
56568;BME280;42456;49.956;20.004;2022-12-18T05:12:34;100050.97;;;-4.35;81.12
56568;BME280;42456;49.956;20.004;2022-12-18T05:15:02;100055.92;;;-4.36;81.03
56568;BME280;42456;49.956;20.004;2022-12-18T05:17:29;100066.91;;;-4.37;81.04
56568;BME280;42456;49.956;20.004;2022-12-18T05:19:55;100061.17;;;-4.36;81.07
56568;BME280;42456;49.956;20.004;2022-12-18T05:22:22;100064.47;;;-4.38;81.02
56568;BME280;42456;49.956;20.004;2022-12-18T05:24:48;100061.36;;;-4.38;81.06
56568;BME280;42456;49.956;20.004;2022-12-18T05:27:15;100056.11;;;-4.38;81.05
56568;BME280;42456;49.956;20.004;2022-12-18T05:29:41;100067.43;;;-4.37;81.04
56568;BME280;42456;49.956;20.004;2022-12-18T05:32:07;100060.87;;;-4.37;81.03
56568;BME280;42456;49.956;20.004;2022-12-18T05:34:34;100056.30;;;-4.39;80.96
56568;BME280;42456;49.956;20.004;2022-12-18T05:37:03;100068.11;;;-4.39;80.96
56568;BME280;42456;49.956;20.004;2022-12-18T05:39:29;100070.25;;;-4.39;80.99
56568;BME280;42456;49.956;20.004;2022-12-18T05:41:56;100078.42;;;-4.38;81.04
56568;BME280;42456;49.956;20.004;2022-12-18T05:44:22;100082.36;;;-4.38;80.99
56568;BME280;42456;49.956;20.004;2022-12-18T05:46:48;100082.55;;;-4.39;81.02
56568;BME280;42456;49.956;20.004;2022-12-18T05:49:15;100091.86;;;-4.37;81.08
56568;BME280;42456;49.956;20.004;2022-12-18T05:51:41;100092.38;;;-4.37;81.00
56568;BME280;42456;49.956;20.004;2022-12-18T05:54:07;100093.69;;;-4.37;80.95
56568;BME280;42456;49.956;20.004;2022-12-18T05:56:34;100091.75;;;-4.39;80.92
56568;BME280;42456;49.956;20.004;2022-12-18T05:59:00;100092.23;;;-4.40;80.91
56568;BME280;42456;49.956;20.004;2022-12-18T06:01:27;100101.76;;;-4.39;81.04
56568;BME280;42456;49.956;20.004;2022-12-18T06:03:53;100098.13;;;-4.38;81.05
56568;BME280;42456;49.956;20.004;2022-12-18T06:06:23;100100.45;;;-4.39;80.98
56568;BME280;42456;49.956;20.004;2022-12-18T06:08:51;100104.38;;;-4.39;80.99
56568;BME280;42456;49.956;20.004;2022-12-18T06:11:21;100109.45;;;-4.37;80.94
56568;BME280;42456;49.956;20.004;2022-12-18T06:13:55;100116.02;;;-4.37;80.95
56568;BME280;42456;49.956;20.004;2022-12-18T06:16:22;100116.50;;;-4.38;80.94
56568;BME280;42456;49.956;20.004;2022-12-18T06:18:48;100118.83;;;-4.39;80.83
56568;BME280;42456;49.956;20.004;2022-12-18T06:21:15;100128.81;;;-4.38;80.81
56568;BME280;42456;49.956;20.004;2022-12-18T06:23:41;100125.88;;;-4.39;80.90
56568;BME280;42456;49.956;20.004;2022-12-18T06:26:09;100125.39;;;-4.39;80.92
56568;BME280;42456;49.956;20.004;2022-12-18T06:28:37;100124.57;;;-4.39;80.83
56568;BME280;42456;49.956;20.004;2022-12-18T06:31:04;100131.44;;;-4.38;80.82
56568;BME280;42456;49.956;20.004;2022-12-18T06:33:31;100131.77;;;-4.37;80.71
56568;BME280;42456;49.956;20.004;2022-12-18T06:36:06;100132.14;;;-4.40;80.65
56568;BME280;42456;49.956;20.004;2022-12-18T06:38:36;100136.39;;;-4.39;80.62
56568;BME280;42456;49.956;20.004;2022-12-18T06:41:09;100137.40;;;-4.40;80.64
56568;BME280;42456;49.956;20.004;2022-12-18T06:43:37;100141.64;;;-4.39;80.65
56568;BME280;42456;49.956;20.004;2022-12-18T06:46:03;100147.72;;;-4.39;80.65
56568;BME280;42456;49.956;20.004;2022-12-18T06:48:31;100146.59;;;-4.40;80.66
56568;BME280;42456;49.956;20.004;2022-12-18T06:50:57;100155.59;;;-4.39;80.72
56568;BME280;42456;49.956;20.004;2022-12-18T06:53:24;100158.22;;;-4.39;80.80
56568;BME280;42456;49.956;20.004;2022-12-18T06:55:50;100151.77;;;-4.36;80.69
56568;BME280;42456;49.956;20.004;2022-12-18T06:58:17;100162.09;;;-4.35;80.61
56568;BME280;42456;49.956;20.004;2022-12-18T07:00:43;100165.53;;;-4.34;80.57
56568;BME280;42456;49.956;20.004;2022-12-18T07:03:10;100167.64;;;-4.34;80.47
56568;BME280;42456;49.956;20.004;2022-12-18T07:05:41;100165.84;;;-4.33;80.48
56568;BME280;42456;49.956;20.004;2022-12-18T07:08:07;100172.22;;;-4.32;80.47
56568;BME280;42456;49.956;20.004;2022-12-18T07:10:33;100178.90;;;-4.29;80.46
56568;BME280;42456;49.956;20.004;2022-12-18T07:13:02;100185.80;;;-4.28;80.46
56568;BME280;42456;49.956;20.004;2022-12-18T07:15:28;100178.52;;;-4.26;80.40
56568;BME280;42456;49.956;20.004;2022-12-18T07:17:54;100179.16;;;-4.24;80.35
56568;BME280;42456;49.956;20.004;2022-12-18T07:20:20;100185.05;;;-4.22;80.31
56568;BME280;42456;49.956;20.004;2022-12-18T07:22:47;100191.73;;;-4.20;80.29
56568;BME280;42456;49.956;20.004;2022-12-18T07:25:13;100192.56;;;-4.19;80.19
56568;BME280;42456;49.956;20.004;2022-12-18T07:27:39;100193.50;;;-4.16;80.14
56568;BME280;42456;49.956;20.004;2022-12-18T07:30:07;100198.86;;;-4.14;80.20
56568;BME280;42456;49.956;20.004;2022-12-18T07:32:34;100194.73;;;-4.12;80.14
56568;BME280;42456;49.956;20.004;2022-12-18T07:35:01;100203.55;;;-4.09;80.05
56568;BME280;42456;49.956;20.004;2022-12-18T07:37:27;100212.08;;;-4.07;80.01
56568;BME280;42456;49.956;20.004;2022-12-18T07:39:53;100216.13;;;-4.05;80.09
56568;BME280;42456;49.956;20.004;2022-12-18T07:42:20;100221.84;;;-4.01;79.98
56568;BME280;42456;49.956;20.004;2022-12-18T07:45:00;100227.39;;;-4.00;79.92
56568;BME280;42456;49.956;20.004;2022-12-18T07:47:27;100231.64;;;-3.99;79.88
56568;BME280;42456;49.956;20.004;2022-12-18T07:49:56;100228.14;;;-3.96;79.92
56568;BME280;42456;49.956;20.004;2022-12-18T07:52:22;100236.29;;;-3.91;79.91
56568;BME280;42456;49.956;20.004;2022-12-18T07:54:48;100232.45;;;-3.88;79.84
56568;BME280;42456;49.956;20.004;2022-12-18T07:57:16;100242.41;;;-3.83;79.85
56568;BME280;42456;49.956;20.004;2022-12-18T07:59:42;100240.53;;;-3.79;79.83
56568;BME280;42456;49.956;20.004;2022-12-18T08:02:09;100237.03;;;-3.75;79.78
56568;BME280;42456;49.956;20.004;2022-12-18T08:04:35;100236.95;;;-3.71;79.72
56568;BME280;42456;49.956;20.004;2022-12-18T08:07:01;100236.09;;;-3.68;79.61
56568;BME280;42456;49.956;20.004;2022-12-18T08:09:28;100245.70;;;-3.64;79.64
56568;BME280;42456;49.956;20.004;2022-12-18T08:11:54;100242.20;;;-3.61;79.56
56568;BME280;42456;49.956;20.004;2022-12-18T08:14:21;100240.02;;;-3.57;79.49
56568;BME280;42456;49.956;20.004;2022-12-18T08:16:47;100244.70;;;-3.53;79.43
56568;BME280;42456;49.956;20.004;2022-12-18T08:19:13;100243.50;;;-3.50;79.28
56568;BME280;42456;49.956;20.004;2022-12-18T08:21:40;100246.24;;;-3.48;79.18
56568;BME280;42456;49.956;20.004;2022-12-18T08:24:06;100250.14;;;-3.44;79.19
56568;BME280;42456;49.956;20.004;2022-12-18T08:26:34;100259.27;;;-3.40;79.10
56568;BME280;42456;49.956;20.004;2022-12-18T08:29:00;100256.55;;;-3.36;79.08
56568;BME280;42456;49.956;20.004;2022-12-18T08:31:28;100262.56;;;-3.31;79.05
56568;BME280;42456;49.956;20.004;2022-12-18T08:33:55;100260.67;;;-3.27;78.99
56568;BME280;42456;49.956;20.004;2022-12-18T08:36:22;100271.14;;;-3.23;79.05
56568;BME280;42456;49.956;20.004;2022-12-18T08:38:49;100263.47;;;-3.18;78.97
56568;BME280;42456;49.956;20.004;2022-12-18T08:41:16;100267.66;;;-3.13;78.79
56568;BME280;42456;49.956;20.004;2022-12-18T08:43:43;100263.63;;;-3.09;78.77
56568;BME280;42456;49.956;20.004;2022-12-18T08:46:25;100261.73;;;-3.04;78.54
56568;BME280;42456;49.956;20.004;2022-12-18T08:48:53;100259.65;;;-2.98;78.44
56568;BME280;42456;49.956;20.004;2022-12-18T08:51:22;100262.03;;;-2.93;78.35
56568;BME280;42456;49.956;20.004;2022-12-18T08:53:48;100258.19;;;-2.90;78.17
56568;BME280;42456;49.956;20.004;2022-12-18T08:56:15;100264.48;;;-2.85;78.19
56568;BME280;42456;49.956;20.004;2022-12-18T08:58:41;100275.75;;;-2.80;78.10
56568;BME280;42456;49.956;20.004;2022-12-18T09:01:10;100281.95;;;-2.77;77.87
56568;BME280;42456;49.956;20.004;2022-12-18T09:03:38;100286.33;;;-2.74;77.71
56568;BME280;42456;49.956;20.004;2022-12-18T09:06:05;100284.00;;;-2.73;77.70
56568;BME280;42456;49.956;20.004;2022-12-18T09:08:31;100284.23;;;-2.68;77.77
56568;BME280;42456;49.956;20.004;2022-12-18T09:10:58;100285.27;;;-2.62;77.65
56568;BME280;42456;49.956;20.004;2022-12-18T09:13:24;100283.89;;;-2.58;77.62
56568;BME280;42456;49.956;20.004;2022-12-18T09:15:52;100282.98;;;-2.55;77.59
56568;BME280;42456;49.956;20.004;2022-12-18T09:18:20;100280.78;;;-2.51;77.49
56568;BME280;42456;49.956;20.004;2022-12-18T09:20:47;100291.72;;;-2.48;77.28
56568;BME280;42456;49.956;20.004;2022-12-18T09:23:15;100296.59;;;-2.45;77.07
56568;BME280;42456;49.956;20.004;2022-12-18T09:25:42;100298.34;;;-2.41;77.03
56568;BME280;42456;49.956;20.004;2022-12-18T09:28:16;100289.02;;;-2.37;76.84
56568;BME280;42456;49.956;20.004;2022-12-18T09:30:47;100303.45;;;-2.33;76.84
56568;BME280;42456;49.956;20.004;2022-12-18T09:33:15;100302.34;;;-2.28;76.98
56568;BME280;42456;49.956;20.004;2022-12-18T09:35:43;100303.06;;;-2.24;76.79
56568;BME280;42456;49.956;20.004;2022-12-18T09:38:18;100310.91;;;-2.20;76.71
56568;BME280;42456;49.956;20.004;2022-12-18T09:40:50;100302.61;;;-2.17;76.66
56568;BME280;42456;49.956;20.004;2022-12-18T09:43:21;100305.45;;;-2.12;76.60
56568;BME280;42456;49.956;20.004;2022-12-18T09:45:58;100291.87;;;-2.09;76.49
56568;BME280;42456;49.956;20.004;2022-12-18T09:48:32;100297.87;;;-2.04;76.32
56568;BME280;42456;49.956;20.004;2022-12-18T09:51:09;100301.42;;;-2.01;76.20
56568;BME280;42456;49.956;20.004;2022-12-18T09:53:40;100301.84;;;-1.98;76.13
56568;BME280;42456;49.956;20.004;2022-12-18T09:56:12;100307.02;;;-1.94;76.14
56568;BME280;42456;49.956;20.004;2022-12-18T09:58:58;100306.33;;;-1.92;76.17
56568;BME280;42456;49.956;20.004;2022-12-18T10:01:26;100312.82;;;-1.87;75.84
56568;BME280;42456;49.956;20.004;2022-12-18T10:03:54;100308.99;;;-1.85;75.80
56568;BME280;42456;49.956;20.004;2022-12-18T10:15:00;100302.71;;;-1.71;75.20
56568;BME280;42456;49.956;20.004;2022-12-18T10:26:04;100301.80;;;-1.80;75.06
56568;BME280;42456;49.956;20.004;2022-12-18T10:28:35;100304.44;;;-1.80;75.01
56568;BME280;42456;49.956;20.004;2022-12-18T10:31:13;100296.11;;;-1.84;74.87
56568;BME280;42456;49.956;20.004;2022-12-18T10:33:42;100308.17;;;-1.85;75.09
56568;BME280;42456;49.956;20.004;2022-12-18T10:36:09;100295.48;;;-1.86;75.24
56568;BME280;42456;49.956;20.004;2022-12-18T10:38:35;100293.57;;;-1.88;74.95
56568;BME280;42456;49.956;20.004;2022-12-18T10:41:08;100297.52;;;-1.88;75.00
56568;BME280;42456;49.956;20.004;2022-12-18T10:43:47;100287.67;;;-1.90;75.08
56568;BME280;42456;49.956;20.004;2022-12-18T10:46:19;100284.73;;;-1.91;74.97
56568;BME280;42456;49.956;20.004;2022-12-18T10:48:56;100283.82;;;-1.94;74.90
56568;BME280;42456;49.956;20.004;2022-12-18T10:51:29;100290.91;;;-1.95;75.13
56568;BME280;42456;49.956;20.004;2022-12-18T10:54:04;100292.52;;;-1.94;75.30
56568;BME280;42456;49.956;20.004;2022-12-18T10:56:36;100282.80;;;-1.93;75.19
56568;BME280;42456;49.956;20.004;2022-12-18T10:59:06;100277.70;;;-2.01;74.94
56568;BME280;42456;49.956;20.004;2022-12-18T11:04:24;100278.20;;;-2.08;74.91
56568;BME280;42456;49.956;20.004;2022-12-18T11:07:07;100276.05;;;-2.09;75.10
56568;BME280;42456;49.956;20.004;2022-12-18T11:09:36;100276.67;;;-2.07;75.13
56568;BME280;42456;49.956;20.004;2022-12-18T11:12:16;100270.58;;;-2.07;74.93
56568;BME280;42456;49.956;20.004;2022-12-18T11:14:47;100271.17;;;-2.12;74.50
56568;BME280;42456;49.956;20.004;2022-12-18T11:17:31;100274.61;;;-2.18;74.63
56568;BME280;42456;49.956;20.004;2022-12-18T11:23:03;100261.53;;;-2.22;74.84
56568;BME280;42456;49.956;20.004;2022-12-18T11:25:32;100255.14;;;-2.23;74.88
56568;BME280;42456;49.956;20.004;2022-12-18T11:28:04;100249.17;;;-2.21;74.95
56568;BME280;42456;49.956;20.004;2022-12-18T11:30:45;100256.55;;;-2.21;74.81
56568;BME280;42456;49.956;20.004;2022-12-18T11:33:19;100252.60;;;-2.21;74.65
56568;BME280;42456;49.956;20.004;2022-12-18T11:35:56;100253.52;;;-2.18;74.66
56568;BME280;42456;49.956;20.004;2022-12-18T11:38:32;100246.23;;;-2.16;74.80
56568;BME280;42456;49.956;20.004;2022-12-18T11:43:55;100247.45;;;-2.12;74.59
56568;BME280;42456;49.956;20.004;2022-12-18T11:46:36;100248.88;;;-2.16;74.24
56568;BME280;42456;49.956;20.004;2022-12-18T11:49:46;100255.66;;;-2.17;74.37
56568;BME280;42456;49.956;20.004;2022-12-18T11:51:51;100258.59;;;-2.16;74.39
56568;BME280;42456;49.956;20.004;2022-12-18T11:54:29;100261.75;;;-2.17;74.39
56568;BME280;42456;49.956;20.004;2022-12-18T11:57:13;100255.95;;;-2.16;74.40
56568;BME280;42456;49.956;20.004;2022-12-18T11:59:57;100266.00;;;-2.16;74.25
56568;BME280;42456;49.956;20.004;2022-12-18T12:05:25;100272.89;;;-2.15;73.96
56568;BME280;42456;49.956;20.004;2022-12-18T12:19:45;100275.63;;;-2.19;73.59
56568;BME280;42456;49.956;20.004;2022-12-18T12:22:30;100273.59;;;-2.23;73.52
56568;BME280;42456;49.956;20.004;2022-12-18T12:28:05;100260.38;;;-2.30;73.65
56568;BME280;42456;49.956;20.004;2022-12-18T12:30:49;100262.91;;;-2.32;73.85
56568;BME280;42456;49.956;20.004;2022-12-18T12:36:07;100265.25;;;-2.33;74.24
56568;BME280;42456;49.956;20.004;2022-12-18T12:38:49;100272.62;;;-2.33;74.39
56568;BME280;42456;49.956;20.004;2022-12-18T12:41:22;100284.48;;;-2.33;74.29
56568;BME280;42456;49.956;20.004;2022-12-18T12:44:06;100285.80;;;-2.33;74.36
56568;BME280;42456;49.956;20.004;2022-12-18T12:46:39;100292.72;;;-2.32;74.38
56568;BME280;42456;49.956;20.004;2022-12-18T12:49:18;100301.94;;;-2.32;74.29
56568;BME280;42456;49.956;20.004;2022-12-18T12:52:03;100313.17;;;-2.34;74.01
56568;BME280;42456;49.956;20.004;2022-12-18T12:54:39;100308.48;;;-2.38;73.83
56568;BME280;42456;49.956;20.004;2022-12-18T12:57:13;100304.63;;;-2.42;73.85
56568;BME280;42456;49.956;20.004;2022-12-18T13:00:00;100311.28;;;-2.46;73.77
56568;BME280;42456;49.956;20.004;2022-12-18T13:05:43;100309.02;;;-2.56;73.79
56568;BME280;42456;49.956;20.004;2022-12-18T13:08:30;100320.33;;;-2.62;73.67
56568;BME280;42456;49.956;20.004;2022-12-18T13:11:00;100323.55;;;-2.66;73.73
56568;BME280;42456;49.956;20.004;2022-12-18T13:13:53;100336.17;;;-2.72;73.45
56568;BME280;42456;49.956;20.004;2022-12-18T13:16:23;100336.64;;;-2.79;73.26
56568;BME280;42456;49.956;20.004;2022-12-18T13:18:51;100337.41;;;-2.85;73.27
56568;BME280;42456;49.956;20.004;2022-12-18T13:21:30;100337.47;;;-2.89;73.57
56568;BME280;42456;49.956;20.004;2022-12-18T13:24:21;100334.42;;;-2.93;73.57
56568;BME280;42456;49.956;20.004;2022-12-18T13:26:41;100333.34;;;-2.98;73.36
56568;BME280;42456;49.956;20.004;2022-12-18T13:29:08;100339.38;;;-3.04;73.15
56568;BME280;42456;49.956;20.004;2022-12-18T13:34:27;100335.64;;;-3.16;72.95
56568;BME280;42456;49.956;20.004;2022-12-18T13:37:50;100327.38;;;-3.24;72.81
56568;BME280;42456;49.956;20.004;2022-12-18T13:39:42;100334.41;;;-3.31;72.84
56568;BME280;42456;49.956;20.004;2022-12-18T13:44:41;100337.05;;;-3.41;72.86
56568;BME280;42456;49.956;20.004;2022-12-18T13:49:52;100347.45;;;-3.54;72.72
56568;BME280;42456;49.956;20.004;2022-12-18T13:52:24;100351.33;;;-3.61;72.67
56568;BME280;42456;49.956;20.004;2022-12-18T13:54:59;100358.64;;;-3.67;72.66
56568;BME280;42456;49.956;20.004;2022-12-18T14:02:55;100374.75;;;-3.91;72.55
56568;BME280;42456;49.956;20.004;2022-12-18T14:05:24;100377.17;;;-4.00;72.51
56568;BME280;42456;49.956;20.004;2022-12-18T14:07:53;100366.45;;;-4.09;72.37
56568;BME280;42456;49.956;20.004;2022-12-18T14:10:21;100368.87;;;-4.18;72.28
56568;BME280;42456;49.956;20.004;2022-12-18T14:12:49;100368.34;;;-4.28;72.20
56568;BME280;42456;49.956;20.004;2022-12-18T14:15:30;100381.87;;;-4.35;72.28
56568;BME280;42456;49.956;20.004;2022-12-18T14:21:00;100396.98;;;-4.52;72.29
56568;BME280;42456;49.956;20.004;2022-12-18T14:23:37;100390.38;;;-4.62;72.21
56568;BME280;42456;49.956;20.004;2022-12-18T14:26:28;100389.00;;;-4.73;72.23
56568;BME280;42456;49.956;20.004;2022-12-18T14:28:56;100386.66;;;-4.82;72.19